createdAt,value
2022-10-23T00:00:42.740Z,17.50
2022-10-23T00:03:10.402Z,19.33
2022-10-23T00:05:41.187Z,18.83
2022-10-23T00:08:09.185Z,16.70
2022-10-23T00:10:37.079Z,17.00
2022-10-23T00:13:04.671Z,17.23
2022-10-23T00:15:32.487Z,16.10
2022-10-23T00:18:01.505Z,16.20
2022-10-23T00:20:29.193Z,15.90
2022-10-23T00:22:56.886Z,17.20
2022-10-23T00:25:24.657Z,17.60
2022-10-23T00:27:52.334Z,16.33
2022-10-23T00:30:20.117Z,17.70
2022-10-23T00:32:47.806Z,18.00
2022-10-23T00:35:16.914Z,16.93
2022-10-23T00:37:44.947Z,17.67
2022-10-23T00:40:13.592Z,17.13
2022-10-23T00:42:41.586Z,17.23
2022-10-23T00:45:17.417Z,15.70
2022-10-23T00:47:45.779Z,15.57
2022-10-23T00:50:13.964Z,15.63
2022-10-23T00:52:47.191Z,17.53
2022-10-23T00:55:15.401Z,14.83
2022-10-23T00:57:45.004Z,16.37
2022-10-23T01:00:17.985Z,17.30
2022-10-23T01:02:45.969Z,17.40
2022-10-23T01:05:14.236Z,14.60
2022-10-23T01:07:50.323Z,15.87
2022-10-23T01:10:23.643Z,15.87
2022-10-23T01:12:54.177Z,15.47
2022-10-23T01:15:24.997Z,16.33
2022-10-23T01:17:56.660Z,14.83
2022-10-23T01:20:32.645Z,15.77
2022-10-23T01:23:16.010Z,14.80
2022-10-23T01:26:05.098Z,16.27
2022-10-23T01:28:37.458Z,16.67
2022-10-23T01:31:09.605Z,14.10
2022-10-23T01:33:40.986Z,13.50
2022-10-23T01:36:13.530Z,15.60
2022-10-23T01:38:44.299Z,15.20
2022-10-23T01:41:20.523Z,15.70
2022-10-23T01:43:54.166Z,14.70
2022-10-23T01:46:30.597Z,14.90
2022-10-23T01:48:59.996Z,15.40
2022-10-23T01:51:29.954Z,15.37
2022-10-23T01:54:03.165Z,14.43
2022-10-23T01:56:34.229Z,14.97
2022-10-23T01:59:06.914Z,16.53
2022-10-23T02:01:41.903Z,13.53
2022-10-23T02:04:11.904Z,12.97
2022-10-23T02:06:39.590Z,15.00
2022-10-23T02:09:07.473Z,13.13
2022-10-23T02:11:39.342Z,15.27
2022-10-23T02:14:12.660Z,15.53
2022-10-23T02:16:44.168Z,14.53
2022-10-23T02:19:16.948Z,16.33
2022-10-23T02:21:52.241Z,16.10
2022-10-23T02:24:22.178Z,16.30
2022-10-23T02:26:52.496Z,17.60
2022-10-23T02:29:28.604Z,16.97
2022-10-23T02:31:59.418Z,17.57
2022-10-23T02:34:27.061Z,18.33
2022-10-23T02:36:55.485Z,19.57
2022-10-23T02:39:25.957Z,18.73
2022-10-23T02:41:57.305Z,21.73
2022-10-23T02:44:38.864Z,19.10
2022-10-23T02:47:14.354Z,20.00
2022-10-23T02:49:47.944Z,20.00
2022-10-23T02:52:21.296Z,18.93
2022-10-23T02:55:00.582Z,17.47
2022-10-23T02:57:33.467Z,17.97
2022-10-23T03:00:07.428Z,19.23
2022-10-23T03:02:39.036Z,17.33
2022-10-23T03:05:10.467Z,17.40
2022-10-23T03:07:40.237Z,17.10
2022-10-23T03:10:11.452Z,16.00
2022-10-23T03:12:39.500Z,16.53
2022-10-23T03:15:11.833Z,17.23
2022-10-23T03:17:39.644Z,18.30
2022-10-23T03:20:08.721Z,17.17
2022-10-23T03:22:36.888Z,16.90
2022-10-23T03:25:05.018Z,19.30
2022-10-23T03:27:33.885Z,16.40
2022-10-23T03:30:07.110Z,17.03
2022-10-23T03:32:39.193Z,16.97
2022-10-23T03:35:07.485Z,16.73
2022-10-23T03:37:35.145Z,17.80
2022-10-23T03:40:03.108Z,17.33
2022-10-23T03:42:34.570Z,16.47
2022-10-23T03:45:02.365Z,16.13
2022-10-23T03:47:32.192Z,16.90
2022-10-23T03:50:02.873Z,16.70
2022-10-23T03:52:33.002Z,16.27
2022-10-23T03:55:00.600Z,17.07
2022-10-23T03:57:28.266Z,17.90
2022-10-23T03:59:56.182Z,17.73
2022-10-23T04:02:23.899Z,18.70
2022-10-23T04:04:53.221Z,17.60
2022-10-23T04:07:22.376Z,17.40
2022-10-23T04:09:50.392Z,17.90
2022-10-23T04:12:18.201Z,16.37
2022-10-23T04:14:45.871Z,16.23
2022-10-23T04:17:13.749Z,16.90
2022-10-23T04:19:43.665Z,15.93
2022-10-23T04:22:12.669Z,15.57
2022-10-23T04:24:45.275Z,16.20
2022-10-23T04:27:17.159Z,14.60
2022-10-23T04:29:44.853Z,15.83
2022-10-23T04:32:13.591Z,13.43
2022-10-23T04:34:44.649Z,16.30
2022-10-23T04:37:12.222Z,16.27
2022-10-23T04:39:41.167Z,15.30
2022-10-23T04:42:13.859Z,14.13
2022-10-23T04:44:41.447Z,14.60
2022-10-23T04:47:09.011Z,13.70
2022-10-23T04:49:46.589Z,13.57
2022-10-23T04:52:23.451Z,14.17
2022-10-23T04:55:25.379Z,13.67
2022-10-23T04:58:07.277Z,15.80
2022-10-23T05:00:34.892Z,14.07
2022-10-23T05:03:02.798Z,14.30
2022-10-23T05:05:36.462Z,13.83
2022-10-23T05:08:22.074Z,13.00
2022-10-23T05:11:09.518Z,14.27
2022-10-23T05:13:42.731Z,12.43
2022-10-23T05:16:10.455Z,13.67
2022-10-23T05:18:45.030Z,13.30
2022-10-23T05:21:16.011Z,14.50
2022-10-23T05:23:45.017Z,13.20
2022-10-23T05:26:15.600Z,13.20
2022-10-23T05:28:46.081Z,13.90
2022-10-23T05:31:16.816Z,13.30
2022-10-23T05:33:49.558Z,13.50
2022-10-23T05:36:17.828Z,13.90
2022-10-23T05:38:46.780Z,14.80
2022-10-23T05:41:18.893Z,13.80
2022-10-23T05:43:47.170Z,13.27
2022-10-23T05:46:33.328Z,13.00
2022-10-23T05:49:19.188Z,14.17
2022-10-23T05:52:05.561Z,13.17
2022-10-23T05:55:05.936Z,14.20
2022-10-23T05:57:53.749Z,15.03
2022-10-23T06:00:32.986Z,14.47
2022-10-23T06:03:20.545Z,14.53
2022-10-23T06:05:50.561Z,16.57
2022-10-23T06:08:21.662Z,15.17
2022-10-23T06:10:51.835Z,14.93
2022-10-23T06:13:21.061Z,14.87
2022-10-23T06:15:48.998Z,13.67
2022-10-23T06:18:22.385Z,13.43
2022-10-23T06:20:56.947Z,13.87
2022-10-23T06:23:26.861Z,14.70
2022-10-23T06:26:12.490Z,14.17
2022-10-23T06:28:54.922Z,14.13
2022-10-23T06:31:26.519Z,12.83
2022-10-23T06:33:56.212Z,14.10
2022-10-23T06:36:25.290Z,14.63
2022-10-23T06:38:57.207Z,12.70
2022-10-23T06:41:42.072Z,15.40
2022-10-23T06:44:11.366Z,14.60
2022-10-23T06:46:47.701Z,14.73
2022-10-23T06:49:35.226Z,13.90
2022-10-23T06:52:03.642Z,14.70
2022-10-23T06:54:31.436Z,14.60
2022-10-23T06:57:34.931Z,14.10
2022-10-23T07:00:04.917Z,14.00
2022-10-23T07:02:42.165Z,12.73
2022-10-23T07:05:13.518Z,12.80
2022-10-23T07:07:43.617Z,13.30
2022-10-23T07:12:51.872Z,13.03
2022-10-23T07:15:35.207Z,13.33
2022-10-23T07:18:03.929Z,13.63
2022-10-23T07:20:46.881Z,13.63
2022-10-23T07:23:16.176Z,13.33
2022-10-23T07:25:44.878Z,14.90
2022-10-23T07:28:20.107Z,13.20
2022-10-23T07:31:28.301Z,15.60
2022-10-23T07:34:21.351Z,14.50
2022-10-23T07:37:12.375Z,15.00
2022-10-23T07:39:40.233Z,14.43
2022-10-23T07:42:08.163Z,13.70
2022-10-23T07:44:35.886Z,14.60
2022-10-23T07:47:04.995Z,15.17
2022-10-23T07:49:33.020Z,13.60
2022-10-23T07:52:01.432Z,14.43
2022-10-23T07:54:42.374Z,14.07
2022-10-23T07:57:24.274Z,13.50
2022-10-23T08:00:11.459Z,14.00
2022-10-23T08:02:49.688Z,14.03
2022-10-23T08:05:20.123Z,13.27
2022-10-23T08:07:54.504Z,13.10
2022-10-23T08:10:32.851Z,13.43
2022-10-23T08:13:01.383Z,12.40
2022-10-23T08:15:49.945Z,12.37
2022-10-23T08:18:57.744Z,11.43
2022-10-23T08:21:26.116Z,12.63
2022-10-23T08:23:55.980Z,11.47
2022-10-23T08:26:24.539Z,10.80
2022-10-23T08:28:52.456Z,9.70
2022-10-23T08:31:21.731Z,9.43
2022-10-23T08:34:18.795Z,9.07
2022-10-23T08:36:48.486Z,9.07
2022-10-23T08:39:17.523Z,9.50
2022-10-23T08:42:02.170Z,8.40
2022-10-23T08:44:32.839Z,8.30
2022-10-23T08:47:08.288Z,7.30
2022-10-23T08:49:59.054Z,7.20
2022-10-23T08:52:28.795Z,6.97
2022-10-23T08:55:01.584Z,6.47
2022-10-23T08:57:38.753Z,6.90
2022-10-23T09:00:12.685Z,6.27
2022-10-23T09:02:46.672Z,5.77
2022-10-23T09:05:22.369Z,6.60
2022-10-23T09:08:02.492Z,5.67
2022-10-23T09:10:38.382Z,5.90
2022-10-23T09:13:27.766Z,6.47
2022-10-23T09:15:57.761Z,5.63
2022-10-23T09:18:25.813Z,6.10
2022-10-23T09:20:55.116Z,6.83
2022-10-23T09:23:24.033Z,5.50
2022-10-23T09:25:56.759Z,6.40
2022-10-23T09:28:31.466Z,6.03
2022-10-23T09:31:27.083Z,5.73
2022-10-23T09:34:15.177Z,6.43
2022-10-23T09:38:02.098Z,5.13
2022-10-23T09:41:01.162Z,5.23
2022-10-23T09:43:53.398Z,5.00
2022-10-23T09:53:55.772Z,4.23
2022-10-23T09:56:57.256Z,4.10
2022-10-23T09:59:59.288Z,4.90
2022-10-23T10:02:50.363Z,5.90
2022-10-23T10:05:41.543Z,4.17
2022-10-23T10:09:07.942Z,4.50
2022-10-23T10:12:00.687Z,4.77
2022-10-23T10:15:20.234Z,4.80
2022-10-23T10:18:19.680Z,6.17
2022-10-23T10:21:33.260Z,4.33
2022-10-23T10:24:36.829Z,4.47
2022-10-23T10:31:07.035Z,4.87
2022-10-23T10:34:11.914Z,5.60
2022-10-23T10:37:49.397Z,4.70
2022-10-23T10:47:37.371Z,4.37
2022-10-23T10:51:07.424Z,5.07
2022-10-23T11:01:09.515Z,4.50
2022-10-23T11:04:29.505Z,4.80
2022-10-23T11:07:24.912Z,4.37
2022-10-23T11:10:30.298Z,4.10
2022-10-23T11:13:54.841Z,5.53
2022-10-23T11:17:17.698Z,4.50
2022-10-23T11:20:19.458Z,4.80
2022-10-23T11:23:02.722Z,4.40
2022-10-23T11:26:22.828Z,4.47
2022-10-23T11:29:18.506Z,4.80
2022-10-23T11:32:28.855Z,5.57
2022-10-23T11:35:45.246Z,4.07
2022-10-23T11:42:11.158Z,5.17
2022-10-23T11:44:55.510Z,6.00
2022-10-23T11:47:47.460Z,3.90
2022-10-23T11:50:37.542Z,4.00
2022-10-23T11:53:35.450Z,3.90
2022-10-23T11:56:40.077Z,3.03
2022-10-23T11:59:35.074Z,3.40
2022-10-23T12:02:24.799Z,3.57
2022-10-23T12:04:54.649Z,3.47
2022-10-23T12:07:25.189Z,3.73
2022-10-23T12:09:55.473Z,3.57
2022-10-23T12:12:32.541Z,3.30
2022-10-23T12:15:10.377Z,3.07
2022-10-23T12:17:39.147Z,4.70
2022-10-23T12:20:34.570Z,4.13
2022-10-23T12:23:21.768Z,3.43
2022-10-23T12:25:59.897Z,3.40
2022-10-23T12:28:33.832Z,3.37
2022-10-23T12:31:09.984Z,3.70
2022-10-23T12:33:44.006Z,3.50
2022-10-23T12:36:34.632Z,3.07
2022-10-23T12:39:02.245Z,3.57
2022-10-23T12:41:31.574Z,4.17
2022-10-23T12:44:00.515Z,3.00
2022-10-23T12:46:32.719Z,2.90
2022-10-23T12:49:02.267Z,3.60
2022-10-23T12:51:31.931Z,2.93
2022-10-23T12:54:01.218Z,3.10
2022-10-23T12:56:35.409Z,3.60
2022-10-23T12:59:03.903Z,4.13
2022-10-23T13:01:33.452Z,3.80
2022-10-23T13:04:08.840Z,4.67
2022-10-23T13:06:36.845Z,3.53
2022-10-23T13:09:07.503Z,4.23
2022-10-23T13:11:48.618Z,4.90
2022-10-23T13:14:30.841Z,2.93
2022-10-23T13:17:05.419Z,3.00
2022-10-23T13:19:33.506Z,4.10
2022-10-23T13:22:02.137Z,3.50
2022-10-23T13:24:32.729Z,3.90
2022-10-23T13:27:00.572Z,2.30
2022-10-23T13:29:30.162Z,2.83
2022-10-23T13:31:57.999Z,3.03
2022-10-23T13:34:29.916Z,3.30
2022-10-23T13:37:23.890Z,2.97
2022-10-23T13:40:02.212Z,2.57
2022-10-23T13:42:29.771Z,3.13
2022-10-23T13:44:57.524Z,4.40
2022-10-23T13:47:25.559Z,2.97
2022-10-23T13:49:53.219Z,3.00
2022-10-23T13:52:23.395Z,3.00
2022-10-23T13:54:51.002Z,2.80
2022-10-23T13:57:19.952Z,3.00
2022-10-23T13:59:47.543Z,3.10
2022-10-23T14:02:20.275Z,3.60
2022-10-23T14:04:47.985Z,3.77
2022-10-23T14:07:15.798Z,3.70
2022-10-23T14:09:43.332Z,3.40
2022-10-23T14:12:11.893Z,3.03
2022-10-23T14:14:40.767Z,3.03
2022-10-23T14:17:08.519Z,4.17
2022-10-23T14:22:04.645Z,4.00
2022-10-23T14:24:32.143Z,3.50
2022-10-23T14:26:59.858Z,2.93
2022-10-23T14:29:27.398Z,3.30
2022-10-23T14:31:56.470Z,4.10
2022-10-23T14:34:24.204Z,3.60
2022-10-23T14:37:04.039Z,3.70
2022-10-23T14:42:24.610Z,3.53
2022-10-23T14:44:52.369Z,3.20
2022-10-23T14:47:21.330Z,3.70
2022-10-23T14:49:50.459Z,3.70
2022-10-23T14:52:18.066Z,4.17
2022-10-23T14:54:47.693Z,3.50
2022-10-23T14:57:16.752Z,3.67
2022-10-23T14:59:44.354Z,2.80
2022-10-23T15:02:29.801Z,3.40
2022-10-23T15:04:59.569Z,3.63
2022-10-23T15:07:28.012Z,3.27
2022-10-23T15:09:55.551Z,2.87
2022-10-23T15:12:24.462Z,3.20
2022-10-23T15:14:51.998Z,4.00
2022-10-23T15:17:19.634Z,4.60
2022-10-23T15:19:47.239Z,4.07
2022-10-23T15:22:16.317Z,5.10
2022-10-23T15:24:43.817Z,4.00
2022-10-23T15:27:13.859Z,4.43
2022-10-23T15:29:41.584Z,3.50
2022-10-23T15:32:10.516Z,4.50
2022-10-23T15:34:39.544Z,3.90
2022-10-23T15:37:08.438Z,3.73
2022-10-23T15:39:37.326Z,4.90
2022-10-23T15:42:07.087Z,5.33
2022-10-23T15:44:35.467Z,4.90
2022-10-23T15:47:03.055Z,4.97
2022-10-23T15:49:30.728Z,4.03
2022-10-23T15:51:58.835Z,4.37
2022-10-23T15:54:29.298Z,5.40
2022-10-23T15:57:01.248Z,4.40
2022-10-23T15:59:30.128Z,4.50
2022-10-23T16:01:57.791Z,10.30
2022-10-23T16:04:25.566Z,4.60
2022-10-23T16:06:53.426Z,5.70
2022-10-23T16:09:21.220Z,4.60
2022-10-23T16:11:49.177Z,4.93
2022-10-23T16:14:18.428Z,6.03
2022-10-23T16:16:46.195Z,7.67
2022-10-23T16:19:14.111Z,6.73
2022-10-23T16:21:42.497Z,8.27
2022-10-23T16:24:10.257Z,8.43
2022-10-23T16:26:38.325Z,5.37
2022-10-23T16:29:07.522Z,4.97
2022-10-23T16:31:38.218Z,5.60
2022-10-23T16:34:06.696Z,4.90
2022-10-23T16:36:34.733Z,4.43
2022-10-23T16:39:09.885Z,5.07
2022-10-23T16:41:56.041Z,4.50
2022-10-23T16:44:27.880Z,4.57
2022-10-23T16:47:01.711Z,6.53
2022-10-23T16:49:32.069Z,5.90
2022-10-23T16:51:59.810Z,4.87
2022-10-23T16:54:27.700Z,5.93
2022-10-23T16:56:55.281Z,5.07
2022-10-23T16:59:23.018Z,4.50
2022-10-23T17:01:50.800Z,4.83
2022-10-23T17:04:20.564Z,4.43
2022-10-23T17:06:48.161Z,4.90
2022-10-23T17:09:16.953Z,4.30
2022-10-23T17:11:45.560Z,4.80
2022-10-23T17:14:15.765Z,4.97
2022-10-23T17:16:45.364Z,5.20
2022-10-23T17:19:39.720Z,4.97
2022-10-23T17:22:03.287Z,4.93
2022-10-23T17:24:31.167Z,6.07
2022-10-23T17:26:58.778Z,5.23
2022-10-23T17:29:26.409Z,4.87
2022-10-23T17:31:53.947Z,5.20
2022-10-23T17:34:25.187Z,4.83
2022-10-23T17:36:54.891Z,6.00
2022-10-23T17:39:25.544Z,4.63
2022-10-23T17:41:53.287Z,5.60
2022-10-23T17:44:21.108Z,5.03
2022-10-23T17:46:52.332Z,6.17
2022-10-23T17:49:20.188Z,6.40
2022-10-23T17:51:47.982Z,5.80
2022-10-23T17:54:15.973Z,5.00
2022-10-23T17:56:44.904Z,6.90
2022-10-23T17:59:17.166Z,5.47
2022-10-23T18:01:46.838Z,5.23
2022-10-23T18:04:14.973Z,5.30
2022-10-23T18:06:44.536Z,5.97
2022-10-23T18:09:13.179Z,4.33
2022-10-23T18:11:46.908Z,4.70
2022-10-23T18:14:17.811Z,4.70
2022-10-23T18:16:46.508Z,4.30
2022-10-23T18:19:15.018Z,4.93
2022-10-23T18:21:42.759Z,4.33
2022-10-23T18:24:10.603Z,4.93
2022-10-23T18:26:39.261Z,5.03
2022-10-23T18:29:08.574Z,4.83
2022-10-23T18:31:38.477Z,4.50
2022-10-23T18:34:08.461Z,4.10
2022-10-23T18:36:37.839Z,3.63
2022-10-23T18:39:06.478Z,6.27
2022-10-23T18:41:35.121Z,6.20
2022-10-23T18:44:03.213Z,4.57
2022-10-23T18:46:30.801Z,4.80
2022-10-23T18:49:00.128Z,6.17
2022-10-23T18:51:29.729Z,5.30
2022-10-23T18:53:57.572Z,4.50
2022-10-23T18:56:26.794Z,4.13
2022-10-23T18:58:56.195Z,3.97
2022-10-23T19:01:25.345Z,4.67
2022-10-23T19:03:53.566Z,3.63
2022-10-23T19:06:22.878Z,5.70
2022-10-23T19:08:51.167Z,4.80
2022-10-23T19:11:20.721Z,4.20
2022-10-23T19:13:48.435Z,4.77
2022-10-23T19:16:18.182Z,4.80
2022-10-23T19:18:48.714Z,4.87
2022-10-23T19:21:18.334Z,11.20
2022-10-23T19:23:47.658Z,6.60
2022-10-23T19:26:15.683Z,4.80
2022-10-23T19:28:45.924Z,4.13
2022-10-23T19:31:13.853Z,5.10
2022-10-23T19:33:41.536Z,4.40
2022-10-23T19:36:13.882Z,4.13
2022-10-23T19:38:42.247Z,4.57
2022-10-23T19:41:11.549Z,4.80
2022-10-23T19:43:39.596Z,4.27
2022-10-23T19:46:10.988Z,5.50
2022-10-23T19:48:43.631Z,4.80
2022-10-23T19:51:12.780Z,4.77
2022-10-23T19:53:41.967Z,4.47
2022-10-23T19:56:12.829Z,4.50
2022-10-23T19:58:41.179Z,4.50
2022-10-23T20:01:11.265Z,5.97
2022-10-23T20:03:39.595Z,5.80
2022-10-23T20:06:09.714Z,5.50
2022-10-23T20:08:37.380Z,5.67
2022-10-23T20:11:05.329Z,6.90
2022-10-23T20:13:34.410Z,5.83
2022-10-23T20:16:02.055Z,6.30
2022-10-23T20:18:29.708Z,5.80
2022-10-23T20:20:57.361Z,6.63
2022-10-23T20:23:25.262Z,6.70
2022-10-23T20:25:52.875Z,7.20
2022-10-23T20:28:21.690Z,7.57
2022-10-23T20:30:50.751Z,6.47
2022-10-23T20:33:18.428Z,7.80
2022-10-23T20:35:46.033Z,8.27
2022-10-23T20:38:13.820Z,8.13
2022-10-23T20:40:41.551Z,7.40
2022-10-23T20:43:09.165Z,6.90
2022-10-23T20:45:36.757Z,6.80
2022-10-23T20:48:06.581Z,6.53
2022-10-23T20:50:35.701Z,5.00
2022-10-23T20:53:03.518Z,6.10
2022-10-23T20:55:31.204Z,5.20
2022-10-23T20:57:58.830Z,4.90
2022-10-23T21:00:27.240Z,4.70
2022-10-23T21:02:55.183Z,4.77
2022-10-23T21:05:24.362Z,5.50
2022-10-23T21:07:51.988Z,5.10
2022-10-23T21:10:21.550Z,5.17
2022-10-23T21:12:49.282Z,4.30
2022-10-23T21:15:17.053Z,5.93
2022-10-23T21:17:44.963Z,5.10
2022-10-23T21:20:12.593Z,5.10
2022-10-23T21:22:42.015Z,3.90
2022-10-23T21:25:10.520Z,4.23
2022-10-23T21:27:38.311Z,4.60
2022-10-23T21:30:07.197Z,4.33
2022-10-23T21:32:35.370Z,3.73
2022-10-23T21:35:03.369Z,5.40
2022-10-23T21:37:30.974Z,3.60
2022-10-23T21:39:59.963Z,4.80
2022-10-23T21:42:30.644Z,4.00
2022-10-23T21:44:58.302Z,4.30
2022-10-23T21:47:26.022Z,3.97
2022-10-23T21:49:53.595Z,3.43
2022-10-23T21:52:21.239Z,2.80
2022-10-23T21:54:52.635Z,3.83
2022-10-23T21:57:21.909Z,2.77
2022-10-23T21:59:49.613Z,2.90
2022-10-23T22:02:17.757Z,2.40
2022-10-23T22:04:45.777Z,2.13
2022-10-23T22:07:14.895Z,2.00
2022-10-23T22:09:42.969Z,1.70
2022-10-23T22:12:11.264Z,1.37
2022-10-23T22:14:40.351Z,1.40
2022-10-23T22:17:08.518Z,1.47
2022-10-23T22:19:36.833Z,1.50
2022-10-23T22:22:04.508Z,1.77
2022-10-23T22:24:32.158Z,1.50
2022-10-23T22:26:59.760Z,1.50
2022-10-23T22:29:29.461Z,1.30
2022-10-23T22:31:59.458Z,1.60
2022-10-23T22:37:16.942Z,1.47
2022-10-23T22:39:44.567Z,1.83
2022-10-23T22:42:12.224Z,1.83
2022-10-23T22:44:39.829Z,1.50
2022-10-23T22:47:08.787Z,1.63
2022-10-23T22:49:36.656Z,1.50
2022-10-23T22:52:04.638Z,1.60
2022-10-23T22:54:32.510Z,1.40
2022-10-23T22:57:00.234Z,1.60
2022-10-23T22:59:28.060Z,1.77
2022-10-23T23:01:56.053Z,2.07
2022-10-23T23:04:40.470Z,1.80
2022-10-23T23:07:08.770Z,2.00
2022-10-23T23:09:38.320Z,1.70
2022-10-23T23:12:06.680Z,1.87
2022-10-23T23:14:34.492Z,1.60
2022-10-23T23:17:02.128Z,2.80
2022-10-23T23:19:31.127Z,1.87
2022-10-23T23:21:59.434Z,2.50
2022-10-23T23:24:27.651Z,2.20
2022-10-23T23:26:55.422Z,2.70
2022-10-23T23:29:23.108Z,2.70
2022-10-23T23:31:50.708Z,2.80
2022-10-23T23:34:18.409Z,2.77
2022-10-23T23:36:47.435Z,3.10
2022-10-23T23:39:15.078Z,3.07
2022-10-23T23:41:42.686Z,3.70
2022-10-23T23:44:10.661Z,2.93
2022-10-23T23:46:38.540Z,3.27
2022-10-23T23:49:06.184Z,3.30
2022-10-23T23:51:33.883Z,4.30
2022-10-23T23:54:02.789Z,3.33
2022-10-23T23:56:30.450Z,3.37
2022-10-23T23:58:58.857Z,3.70
